Eastampton Township, New Jersey
Current Conditions -  °F | °C
As of 2:54 AM on Thursday 18 Dec 2014 (Local Time) from KVAY Reporting Station
Overcast Overcast  
Wind Chill: 30°   Ceiling: 6500
Heat Index: 37°   Visibility: 10mi
Dew Point: 21°   Wind: 9mph
Humidity: 52%   Direction: 280°W
Pressure: 29.99"   Gusts: 21mph
Location:  39.9896°N, 74.8021°W
Report Text: KVAY 180754Z AUTO 28008G18KT 10SM OVC065 03/M06 A2999 RMK AO2 SLP155 T00281061
Loading
Personal Weather Stations






























Interactive Weather Map New forecast layout! Learn more

10-Day Weather Forecast

Advertisements
Track Severe Weather on mobile